sensor_id;sensor_type;location;lat;lon;timestamp;P1;durP1;ratioP1;P2;durP2;ratioP2
55316;SDS011;41178;48.956;8.130;2024-01-30T00:04:25;32.50;;;23.23;;
55316;SDS011;41178;48.956;8.130;2024-01-30T00:09:26;19.13;;;15.77;;
55316;SDS011;41178;48.956;8.130;2024-01-30T00:14:28;18.57;;;14.97;;
55316;SDS011;41178;48.956;8.130;2024-01-30T00:19:30;18.30;;;14.87;;
55316;SDS011;41178;48.956;8.130;2024-01-30T00:24:32;19.13;;;16.40;;
55316;SDS011;41178;48.956;8.130;2024-01-30T00:29:34;25.03;;;17.37;;
55316;SDS011;41178;48.956;8.130;2024-01-30T00:34:35;19.80;;;16.47;;
55316;SDS011;41178;48.956;8.130;2024-01-30T00:39:37;19.20;;;15.50;;
55316;SDS011;41178;48.956;8.130;2024-01-30T00:44:39;18.40;;;15.17;;
55316;SDS011;41178;48.956;8.130;2024-01-30T00:49:41;20.13;;;15.33;;
55316;SDS011;41178;48.956;8.130;2024-01-30T00:54:43;16.47;;;14.43;;
55316;SDS011;41178;48.956;8.130;2024-01-30T00:59:46;21.00;;;16.17;;
55316;SDS011;41178;48.956;8.130;2024-01-30T01:04:47;16.53;;;13.87;;
55316;SDS011;41178;48.956;8.130;2024-01-30T01:09:49;18.97;;;14.27;;
55316;SDS011;41178;48.956;8.130;2024-01-30T01:14:51;19.37;;;15.20;;
55316;SDS011;41178;48.956;8.130;2024-01-30T01:19:53;17.67;;;14.50;;
55316;SDS011;41178;48.956;8.130;2024-01-30T01:24:55;17.10;;;14.50;;
55316;SDS011;41178;48.956;8.130;2024-01-30T01:29:56;18.00;;;14.33;;
55316;SDS011;41178;48.956;8.130;2024-01-30T01:34:58;20.73;;;15.83;;
55316;SDS011;41178;48.956;8.130;2024-01-30T01:40:00;20.60;;;15.17;;
55316;SDS011;41178;48.956;8.130;2024-01-30T01:45:02;20.07;;;15.30;;
55316;SDS011;41178;48.956;8.130;2024-01-30T01:50:04;17.93;;;14.53;;
55316;SDS011;41178;48.956;8.130;2024-01-30T01:55:06;16.33;;;14.30;;
55316;SDS011;41178;48.956;8.130;2024-01-30T02:00:09;16.00;;;13.40;;
55316;SDS011;41178;48.956;8.130;2024-01-30T02:05:14;18.10;;;14.77;;
55316;SDS011;41178;48.956;8.130;2024-01-30T02:10:17;20.87;;;14.53;;
55316;SDS011;41178;48.956;8.130;2024-01-30T02:15:19;19.90;;;15.67;;
55316;SDS011;41178;48.956;8.130;2024-01-30T02:20:21;18.37;;;14.73;;
55316;SDS011;41178;48.956;8.130;2024-01-30T02:25:42;19.53;;;15.27;;
55316;SDS011;41178;48.956;8.130;2024-01-30T02:30:47;18.87;;;15.47;;
55316;SDS011;41178;48.956;8.130;2024-01-30T02:35:48;20.80;;;15.37;;
55316;SDS011;41178;48.956;8.130;2024-01-30T02:40:50;19.87;;;16.07;;
55316;SDS011;41178;48.956;8.130;2024-01-30T02:45:52;17.17;;;14.87;;
55316;SDS011;41178;48.956;8.130;2024-01-30T02:50:54;17.83;;;15.00;;
55316;SDS011;41178;48.956;8.130;2024-01-30T02:55:56;18.37;;;15.80;;
55316;SDS011;41178;48.956;8.130;2024-01-30T03:00:58;17.47;;;15.17;;
55316;SDS011;41178;48.956;8.130;2024-01-30T03:06:00;20.03;;;14.63;;
55316;SDS011;41178;48.956;8.130;2024-01-30T03:11:02;18.83;;;15.83;;
55316;SDS011;41178;48.956;8.130;2024-01-30T03:16:04;20.73;;;15.50;;
55316;SDS011;41178;48.956;8.130;2024-01-30T03:21:06;22.90;;;15.53;;
55316;SDS011;41178;48.956;8.130;2024-01-30T03:26:08;24.23;;;16.03;;
55316;SDS011;41178;48.956;8.130;2024-01-30T03:31:10;20.33;;;15.07;;
55316;SDS011;41178;48.956;8.130;2024-01-30T03:36:17;22.57;;;15.77;;
55316;SDS011;41178;48.956;8.130;2024-01-30T03:41:19;18.53;;;15.57;;
55316;SDS011;41178;48.956;8.130;2024-01-30T03:46:21;23.07;;;16.47;;
55316;SDS011;41178;48.956;8.130;2024-01-30T03:51:23;16.57;;;13.50;;
55316;SDS011;41178;48.956;8.130;2024-01-30T03:56:25;16.07;;;13.93;;
55316;SDS011;41178;48.956;8.130;2024-01-30T04:01:27;16.00;;;12.37;;
55316;SDS011;41178;48.956;8.130;2024-01-30T04:06:28;17.60;;;13.47;;
55316;SDS011;41178;48.956;8.130;2024-01-30T04:11:30;16.50;;;12.33;;
55316;SDS011;41178;48.956;8.130;2024-01-30T04:16:32;14.07;;;10.97;;
55316;SDS011;41178;48.956;8.130;2024-01-30T04:21:34;14.43;;;12.60;;
55316;SDS011;41178;48.956;8.130;2024-01-30T04:26:35;15.43;;;10.57;;
55316;SDS011;41178;48.956;8.130;2024-01-30T04:31:38;12.43;;;9.77;;
55316;SDS011;41178;48.956;8.130;2024-01-30T04:36:40;13.70;;;10.37;;
55316;SDS011;41178;48.956;8.130;2024-01-30T04:41:46;14.03;;;11.00;;
55316;SDS011;41178;48.956;8.130;2024-01-30T04:46:48;14.67;;;12.13;;
55316;SDS011;41178;48.956;8.130;2024-01-30T04:51:49;14.03;;;11.33;;
55316;SDS011;41178;48.956;8.130;2024-01-30T04:56:51;13.20;;;10.30;;
55316;SDS011;41178;48.956;8.130;2024-01-30T05:01:53;14.53;;;10.80;;
55316;SDS011;41178;48.956;8.130;2024-01-30T05:06:55;11.83;;;9.63;;
55316;SDS011;41178;48.956;8.130;2024-01-30T05:11:56;14.50;;;10.90;;
55316;SDS011;41178;48.956;8.130;2024-01-30T05:16:59;14.47;;;10.97;;
55316;SDS011;41178;48.956;8.130;2024-01-30T05:22:01;12.53;;;11.10;;
55316;SDS011;41178;48.956;8.130;2024-01-30T05:27:02;12.77;;;10.10;;
55316;SDS011;41178;48.956;8.130;2024-01-30T05:32:04;15.97;;;11.90;;
55316;SDS011;41178;48.956;8.130;2024-01-30T05:37:09;14.97;;;11.43;;
55316;SDS011;41178;48.956;8.130;2024-01-30T05:42:15;14.63;;;11.10;;
55316;SDS011;41178;48.956;8.130;2024-01-30T05:47:18;13.67;;;10.97;;
55316;SDS011;41178;48.956;8.130;2024-01-30T05:52:19;16.90;;;12.70;;
55316;SDS011;41178;48.956;8.130;2024-01-30T05:57:21;14.70;;;12.63;;
55316;SDS011;41178;48.956;8.130;2024-01-30T06:02:23;14.37;;;12.63;;
55316;SDS011;41178;48.956;8.130;2024-01-30T06:07:24;16.47;;;13.47;;
55316;SDS011;41178;48.956;8.130;2024-01-30T06:12:27;16.00;;;12.93;;
55316;SDS011;41178;48.956;8.130;2024-01-30T06:17:29;20.80;;;14.73;;
55316;SDS011;41178;48.956;8.130;2024-01-30T06:22:31;18.07;;;15.97;;
55316;SDS011;41178;48.956;8.130;2024-01-30T06:27:33;23.80;;;17.50;;
55316;SDS011;41178;48.956;8.130;2024-01-30T06:32:37;22.33;;;17.73;;
55316;SDS011;41178;48.956;8.130;2024-01-30T06:37:40;20.40;;;16.20;;
55316;SDS011;41178;48.956;8.130;2024-01-30T06:42:41;20.80;;;16.37;;
55316;SDS011;41178;48.956;8.130;2024-01-30T06:47:43;21.47;;;17.00;;
55316;SDS011;41178;48.956;8.130;2024-01-30T06:52:45;21.93;;;17.73;;
55316;SDS011;41178;48.956;8.130;2024-01-30T06:57:46;22.23;;;17.90;;
55316;SDS011;41178;48.956;8.130;2024-01-30T07:02:50;22.87;;;16.43;;
55316;SDS011;41178;48.956;8.130;2024-01-30T07:07:51;21.63;;;16.23;;
55316;SDS011;41178;48.956;8.130;2024-01-30T07:12:53;18.77;;;15.40;;
55316;SDS011;41178;48.956;8.130;2024-01-30T07:17:55;19.03;;;14.43;;
55316;SDS011;41178;48.956;8.130;2024-01-30T07:23:00;18.20;;;15.10;;
55316;SDS011;41178;48.956;8.130;2024-01-30T07:28:02;18.07;;;15.37;;
55316;SDS011;41178;48.956;8.130;2024-01-30T07:33:03;20.63;;;15.00;;
55316;SDS011;41178;48.956;8.130;2024-01-30T07:38:05;19.43;;;13.70;;
55316;SDS011;41178;48.956;8.130;2024-01-30T07:43:08;20.67;;;14.23;;
55316;SDS011;41178;48.956;8.130;2024-01-30T07:48:09;18.30;;;14.03;;
55316;SDS011;41178;48.956;8.130;2024-01-30T07:53:11;19.67;;;14.80;;
55316;SDS011;41178;48.956;8.130;2024-01-30T07:58:13;19.43;;;15.83;;
55316;SDS011;41178;48.956;8.130;2024-01-30T08:03:14;15.73;;;14.13;;
55316;SDS011;41178;48.956;8.130;2024-01-30T08:08:18;17.37;;;13.70;;
55316;SDS011;41178;48.956;8.130;2024-01-30T08:13:20;15.83;;;13.57;;
55316;SDS011;41178;48.956;8.130;2024-01-30T08:18:22;19.97;;;14.77;;
55316;SDS011;41178;48.956;8.130;2024-01-30T08:23:24;18.03;;;13.43;;
55316;SDS011;41178;48.956;8.130;2024-01-30T08:28:26;16.83;;;13.87;;
55316;SDS011;41178;48.956;8.130;2024-01-30T08:33:27;17.93;;;13.87;;
55316;SDS011;41178;48.956;8.130;2024-01-30T08:38:29;16.63;;;13.20;;
55316;SDS011;41178;48.956;8.130;2024-01-30T08:43:31;18.00;;;14.77;;
55316;SDS011;41178;48.956;8.130;2024-01-30T08:48:32;17.13;;;12.97;;
55316;SDS011;41178;48.956;8.130;2024-01-30T08:53:34;16.60;;;13.93;;
55316;SDS011;41178;48.956;8.130;2024-01-30T08:58:37;15.70;;;12.50;;
55316;SDS011;41178;48.956;8.130;2024-01-30T09:03:38;17.80;;;12.90;;
55316;SDS011;41178;48.956;8.130;2024-01-30T09:08:45;16.30;;;13.83;;
55316;SDS011;41178;48.956;8.130;2024-01-30T09:13:46;17.63;;;12.40;;
55316;SDS011;41178;48.956;8.130;2024-01-30T09:18:48;16.60;;;13.73;;
55316;SDS011;41178;48.956;8.130;2024-01-30T09:23:51;19.63;;;15.23;;
55316;SDS011;41178;48.956;8.130;2024-01-30T09:28:55;18.20;;;15.33;;
55316;SDS011;41178;48.956;8.130;2024-01-30T09:33:57;18.40;;;15.53;;
55316;SDS011;41178;48.956;8.130;2024-01-30T09:38:59;15.43;;;13.80;;
55316;SDS011;41178;48.956;8.130;2024-01-30T09:44:02;18.20;;;15.67;;
55316;SDS011;41178;48.956;8.130;2024-01-30T09:49:07;20.07;;;16.03;;
55316;SDS011;41178;48.956;8.130;2024-01-30T09:54:10;17.43;;;13.50;;
55316;SDS011;41178;48.956;8.130;2024-01-30T09:59:15;19.10;;;14.70;;
55316;SDS011;41178;48.956;8.130;2024-01-30T10:04:17;19.37;;;14.83;;
55316;SDS011;41178;48.956;8.130;2024-01-30T10:09:19;19.90;;;14.60;;
55316;SDS011;41178;48.956;8.130;2024-01-30T10:14:20;16.83;;;13.87;;
55316;SDS011;41178;48.956;8.130;2024-01-30T10:19:22;17.93;;;15.03;;
55316;SDS011;41178;48.956;8.130;2024-01-30T10:24:24;17.80;;;13.33;;
55316;SDS011;41178;48.956;8.130;2024-01-30T10:29:26;15.80;;;13.57;;
55316;SDS011;41178;48.956;8.130;2024-01-30T10:34:29;15.50;;;12.60;;
55316;SDS011;41178;48.956;8.130;2024-01-30T10:39:31;17.53;;;13.17;;
55316;SDS011;41178;48.956;8.130;2024-01-30T10:44:42;15.40;;;11.97;;
55316;SDS011;41178;48.956;8.130;2024-01-30T10:50:05;13.40;;;12.00;;
55316;SDS011;41178;48.956;8.130;2024-01-30T10:55:09;13.37;;;11.43;;
55316;SDS011;41178;48.956;8.130;2024-01-30T11:00:14;14.73;;;11.47;;
55316;SDS011;41178;48.956;8.130;2024-01-30T11:06:26;12.97;;;10.97;;
55316;SDS011;41178;48.956;8.130;2024-01-30T11:11:27;12.13;;;10.33;;
55316;SDS011;41178;48.956;8.130;2024-01-30T11:16:31;13.60;;;9.80;;
55316;SDS011;41178;48.956;8.130;2024-01-30T11:21:33;12.27;;;9.43;;
55316;SDS011;41178;48.956;8.130;2024-01-30T11:26:42;13.23;;;9.63;;
55316;SDS011;41178;48.956;8.130;2024-01-30T11:31:54;11.07;;;8.60;;
55316;SDS011;41178;48.956;8.130;2024-01-30T11:36:56;9.63;;;8.13;;
55316;SDS011;41178;48.956;8.130;2024-01-30T11:42:01;10.50;;;8.13;;
55316;SDS011;41178;48.956;8.130;2024-01-30T11:47:06;10.80;;;8.23;;
55316;SDS011;41178;48.956;8.130;2024-01-30T11:52:07;11.57;;;7.40;;
55316;SDS011;41178;48.956;8.130;2024-01-30T11:57:09;9.70;;;7.50;;
55316;SDS011;41178;48.956;8.130;2024-01-30T12:02:15;13.70;;;8.17;;
55316;SDS011;41178;48.956;8.130;2024-01-30T12:07:18;8.77;;;7.03;;
55316;SDS011;41178;48.956;8.130;2024-01-30T12:12:21;8.77;;;7.60;;
55316;SDS011;41178;48.956;8.130;2024-01-30T12:17:29;9.70;;;7.57;;
55316;SDS011;41178;48.956;8.130;2024-01-30T12:22:41;10.97;;;7.70;;
55316;SDS011;41178;48.956;8.130;2024-01-30T12:27:45;10.60;;;8.03;;
55316;SDS011;41178;48.956;8.130;2024-01-30T12:32:49;11.13;;;8.70;;
55316;SDS011;41178;48.956;8.130;2024-01-30T12:37:52;10.20;;;7.50;;
55316;SDS011;41178;48.956;8.130;2024-01-30T12:42:54;11.93;;;8.37;;
55316;SDS011;41178;48.956;8.130;2024-01-30T12:47:56;11.10;;;7.60;;
55316;SDS011;41178;48.956;8.130;2024-01-30T12:52:58;9.20;;;7.50;;
55316;SDS011;41178;48.956;8.130;2024-01-30T12:58:00;11.13;;;7.13;;
55316;SDS011;41178;48.956;8.130;2024-01-30T13:03:01;10.93;;;7.53;;
55316;SDS011;41178;48.956;8.130;2024-01-30T13:08:03;8.67;;;6.90;;
55316;SDS011;41178;48.956;8.130;2024-01-30T13:13:05;9.77;;;6.90;;
55316;SDS011;41178;48.956;8.130;2024-01-30T13:18:14;11.87;;;7.37;;
55316;SDS011;41178;48.956;8.130;2024-01-30T13:23:16;8.87;;;6.87;;
55316;SDS011;41178;48.956;8.130;2024-01-30T13:28:18;8.53;;;6.50;;
55316;SDS011;41178;48.956;8.130;2024-01-30T13:33:19;12.00;;;7.37;;
55316;SDS011;41178;48.956;8.130;2024-01-30T13:38:21;9.87;;;7.47;;
55316;SDS011;41178;48.956;8.130;2024-01-30T13:43:23;10.20;;;7.43;;
55316;SDS011;41178;48.956;8.130;2024-01-30T13:48:24;8.53;;;7.30;;
55316;SDS011;41178;48.956;8.130;2024-01-30T13:53:29;9.17;;;7.17;;
55316;SDS011;41178;48.956;8.130;2024-01-30T13:58:31;10.53;;;7.90;;
55316;SDS011;41178;48.956;8.130;2024-01-30T14:03:35;12.30;;;7.73;;
55316;SDS011;41178;48.956;8.130;2024-01-30T14:08:36;10.70;;;8.43;;
55316;SDS011;41178;48.956;8.130;2024-01-30T14:13:39;15.07;;;11.00;;
55316;SDS011;41178;48.956;8.130;2024-01-30T14:18:41;13.60;;;9.77;;
55316;SDS011;41178;48.956;8.130;2024-01-30T14:23:42;15.37;;;8.07;;
55316;SDS011;41178;48.956;8.130;2024-01-30T14:28:44;9.30;;;6.60;;
55316;SDS011;41178;48.956;8.130;2024-01-30T14:33:47;12.73;;;9.93;;
55316;SDS011;41178;48.956;8.130;2024-01-30T14:38:49;13.83;;;9.50;;
55316;SDS011;41178;48.956;8.130;2024-01-30T14:43:50;9.63;;;6.97;;
55316;SDS011;41178;48.956;8.130;2024-01-30T14:48:52;16.27;;;11.03;;
55316;SDS011;41178;48.956;8.130;2024-01-30T14:53:54;10.47;;;8.80;;
55316;SDS011;41178;48.956;8.130;2024-01-30T14:58:56;10.37;;;7.57;;
55316;SDS011;41178;48.956;8.130;2024-01-30T15:03:57;11.77;;;8.20;;
55316;SDS011;41178;48.956;8.130;2024-01-30T15:08:59;12.47;;;8.33;;
55316;SDS011;41178;48.956;8.130;2024-01-30T15:14:01;11.20;;;8.70;;
55316;SDS011;41178;48.956;8.130;2024-01-30T15:19:04;10.47;;;7.77;;
55316;SDS011;41178;48.956;8.130;2024-01-30T15:24:07;11.03;;;8.10;;
55316;SDS011;41178;48.956;8.130;2024-01-30T15:29:08;12.43;;;8.87;;
55316;SDS011;41178;48.956;8.130;2024-01-30T15:34:10;10.60;;;8.00;;
55316;SDS011;41178;48.956;8.130;2024-01-30T15:39:12;14.77;;;9.07;;
55316;SDS011;41178;48.956;8.130;2024-01-30T15:44:16;10.37;;;7.10;;
55316;SDS011;41178;48.956;8.130;2024-01-30T15:49:18;8.93;;;7.27;;
55316;SDS011;41178;48.956;8.130;2024-01-30T15:54:19;29.83;;;19.40;;
55316;SDS011;41178;48.956;8.130;2024-01-30T15:59:23;12.27;;;7.20;;
55316;SDS011;41178;48.956;8.130;2024-01-30T16:04:24;11.33;;;7.80;;
55316;SDS011;41178;48.956;8.130;2024-01-30T16:09:26;10.93;;;7.87;;
55316;SDS011;41178;48.956;8.130;2024-01-30T16:14:28;17.57;;;11.63;;
55316;SDS011;41178;48.956;8.130;2024-01-30T16:19:29;14.50;;;10.60;;
55316;SDS011;41178;48.956;8.130;2024-01-30T16:24:34;14.00;;;8.33;;
55316;SDS011;41178;48.956;8.130;2024-01-30T16:29:36;8.33;;;7.03;;
55316;SDS011;41178;48.956;8.130;2024-01-30T16:34:37;10.87;;;8.00;;
55316;SDS011;41178;48.956;8.130;2024-01-30T16:39:39;10.73;;;8.17;;
55316;SDS011;41178;48.956;8.130;2024-01-30T16:44:41;14.60;;;10.30;;
55316;SDS011;41178;48.956;8.130;2024-01-30T16:49:44;18.97;;;11.97;;
55316;SDS011;41178;48.956;8.130;2024-01-30T16:54:46;14.77;;;11.30;;
55316;SDS011;41178;48.956;8.130;2024-01-30T16:59:48;12.67;;;10.03;;
55316;SDS011;41178;48.956;8.130;2024-01-30T17:04:50;14.03;;;10.70;;
55316;SDS011;41178;48.956;8.130;2024-01-30T17:09:52;14.77;;;9.33;;
55316;SDS011;41178;48.956;8.130;2024-01-30T17:14:55;13.33;;;8.60;;
55316;SDS011;41178;48.956;8.130;2024-01-30T17:19:57;12.27;;;8.20;;
55316;SDS011;41178;48.956;8.130;2024-01-30T17:24:59;13.70;;;10.53;;
55316;SDS011;41178;48.956;8.130;2024-01-30T17:30:01;13.77;;;10.10;;
55316;SDS011;41178;48.956;8.130;2024-01-30T17:35:02;13.67;;;11.37;;
55316;SDS011;41178;48.956;8.130;2024-01-30T17:40:05;17.33;;;11.80;;
55316;SDS011;41178;48.956;8.130;2024-01-30T17:45:08;12.30;;;9.43;;
55316;SDS011;41178;48.956;8.130;2024-01-30T17:50:11;16.43;;;10.13;;
55316;SDS011;41178;48.956;8.130;2024-01-30T17:55:12;12.53;;;8.60;;
55316;SDS011;41178;48.956;8.130;2024-01-30T18:00:15;12.77;;;9.90;;
55316;SDS011;41178;48.956;8.130;2024-01-30T18:05:20;14.90;;;11.20;;
55316;SDS011;41178;48.956;8.130;2024-01-30T18:10:21;11.97;;;9.73;;
55316;SDS011;41178;48.956;8.130;2024-01-30T18:15:23;15.87;;;11.70;;
55316;SDS011;41178;48.956;8.130;2024-01-30T18:20:26;15.67;;;10.97;;
55316;SDS011;41178;48.956;8.130;2024-01-30T18:25:28;15.37;;;12.13;;
55316;SDS011;41178;48.956;8.130;2024-01-30T18:30:29;15.53;;;10.77;;
55316;SDS011;41178;48.956;8.130;2024-01-30T18:35:31;13.27;;;10.87;;
55316;SDS011;41178;48.956;8.130;2024-01-30T18:40:34;14.43;;;11.37;;
55316;SDS011;41178;48.956;8.130;2024-01-30T18:45:36;13.60;;;11.23;;
55316;SDS011;41178;48.956;8.130;2024-01-30T18:50:38;13.93;;;11.70;;
55316;SDS011;41178;48.956;8.130;2024-01-30T18:55:39;13.93;;;11.17;;
55316;SDS011;41178;48.956;8.130;2024-01-30T19:00:44;12.60;;;10.97;;
55316;SDS011;41178;48.956;8.130;2024-01-30T19:05:49;15.87;;;11.23;;
55316;SDS011;41178;48.956;8.130;2024-01-30T19:10:51;13.90;;;11.47;;
55316;SDS011;41178;48.956;8.130;2024-01-30T19:15:55;15.20;;;11.63;;
55316;SDS011;41178;48.956;8.130;2024-01-30T19:20:57;14.73;;;11.37;;
55316;SDS011;41178;48.956;8.130;2024-01-30T19:25:59;15.97;;;12.93;;
55316;SDS011;41178;48.956;8.130;2024-01-30T19:31:02;15.90;;;11.73;;
55316;SDS011;41178;48.956;8.130;2024-01-30T19:36:04;13.10;;;11.10;;
55316;SDS011;41178;48.956;8.130;2024-01-30T19:41:06;14.43;;;11.00;;
55316;SDS011;41178;48.956;8.130;2024-01-30T19:46:11;15.40;;;11.67;;
55316;SDS011;41178;48.956;8.130;2024-01-30T19:51:13;17.40;;;13.50;;
55316;SDS011;41178;48.956;8.130;2024-01-30T19:56:15;17.63;;;13.47;;
55316;SDS011;41178;48.956;8.130;2024-01-30T20:01:18;17.07;;;12.70;;
55316;SDS011;41178;48.956;8.130;2024-01-30T20:06:20;14.40;;;11.30;;
55316;SDS011;41178;48.956;8.130;2024-01-30T20:11:21;15.50;;;11.60;;
55316;SDS011;41178;48.956;8.130;2024-01-30T20:16:23;15.93;;;12.10;;
55316;SDS011;41178;48.956;8.130;2024-01-30T20:21:25;16.50;;;12.57;;
55316;SDS011;41178;48.956;8.130;2024-01-30T20:26:26;17.00;;;11.70;;
55316;SDS011;41178;48.956;8.130;2024-01-30T20:31:31;17.10;;;11.73;;
55316;SDS011;41178;48.956;8.130;2024-01-30T20:36:33;15.40;;;11.50;;
55316;SDS011;41178;48.956;8.130;2024-01-30T20:41:37;12.63;;;10.73;;
55316;SDS011;41178;48.956;8.130;2024-01-30T20:46:42;12.70;;;10.27;;
55316;SDS011;41178;48.956;8.130;2024-01-30T20:51:44;14.13;;;10.50;;
55316;SDS011;41178;48.956;8.130;2024-01-30T20:56:46;11.57;;;10.10;;
55316;SDS011;41178;48.956;8.130;2024-01-30T21:01:48;12.50;;;9.97;;
55316;SDS011;41178;48.956;8.130;2024-01-30T21:06:50;11.93;;;10.03;;
55316;SDS011;41178;48.956;8.130;2024-01-30T21:11:51;12.80;;;10.80;;
55316;SDS011;41178;48.956;8.130;2024-01-30T21:16:54;14.57;;;11.73;;
55316;SDS011;41178;48.956;8.130;2024-01-30T21:21:55;14.37;;;10.83;;
55316;SDS011;41178;48.956;8.130;2024-01-30T21:26:57;14.33;;;11.67;;
55316;SDS011;41178;48.956;8.130;2024-01-30T21:31:58;16.03;;;12.23;;
55316;SDS011;41178;48.956;8.130;2024-01-30T21:37:00;14.80;;;11.77;;
55316;SDS011;41178;48.956;8.130;2024-01-30T21:42:02;13.07;;;10.57;;
55316;SDS011;41178;48.956;8.130;2024-01-30T21:47:04;15.10;;;11.23;;
55316;SDS011;41178;48.956;8.130;2024-01-30T21:52:06;13.50;;;11.13;;
55316;SDS011;41178;48.956;8.130;2024-01-30T21:57:09;16.53;;;12.43;;
55316;SDS011;41178;48.956;8.130;2024-01-30T22:02:12;13.87;;;11.37;;
55316;SDS011;41178;48.956;8.130;2024-01-30T22:07:14;17.33;;;11.53;;
55316;SDS011;41178;48.956;8.130;2024-01-30T22:12:16;14.73;;;11.30;;
55316;SDS011;41178;48.956;8.130;2024-01-30T22:17:18;14.67;;;10.40;;
55316;SDS011;41178;48.956;8.130;2024-01-30T22:22:20;15.33;;;10.87;;
55316;SDS011;41178;48.956;8.130;2024-01-30T22:27:21;17.03;;;12.00;;
55316;SDS011;41178;48.956;8.130;2024-01-30T22:32:23;14.90;;;11.27;;
55316;SDS011;41178;48.956;8.130;2024-01-30T22:37:25;14.23;;;11.53;;
55316;SDS011;41178;48.956;8.130;2024-01-30T22:42:26;16.33;;;11.33;;
55316;SDS011;41178;48.956;8.130;2024-01-30T22:47:28;14.17;;;9.87;;
55316;SDS011;41178;48.956;8.130;2024-01-30T22:52:29;11.63;;;9.30;;
55316;SDS011;41178;48.956;8.130;2024-01-30T22:57:31;16.63;;;10.70;;
55316;SDS011;41178;48.956;8.130;2024-01-30T23:02:34;12.00;;;9.30;;
55316;SDS011;41178;48.956;8.130;2024-01-30T23:07:36;12.37;;;10.17;;
55316;SDS011;41178;48.956;8.130;2024-01-30T23:12:41;14.40;;;8.57;;
55316;SDS011;41178;48.956;8.130;2024-01-30T23:17:45;11.07;;;8.53;;
55316;SDS011;41178;48.956;8.130;2024-01-30T23:22:47;12.27;;;8.80;;
55316;SDS011;41178;48.956;8.130;2024-01-30T23:27:49;10.53;;;9.40;;
55316;SDS011;41178;48.956;8.130;2024-01-30T23:32:51;11.43;;;9.13;;
55316;SDS011;41178;48.956;8.130;2024-01-30T23:37:55;10.50;;;8.70;;
55316;SDS011;41178;48.956;8.130;2024-01-30T23:42:57;11.27;;;8.63;;
55316;SDS011;41178;48.956;8.130;2024-01-30T23:47:59;11.83;;;8.83;;
55316;SDS011;41178;48.956;8.130;2024-01-30T23:53:01;21.23;;;10.60;;
55316;SDS011;41178;48.956;8.130;2024-01-30T23:58:02;12.80;;;9.27;;
